Time;durP1;ratioP1;P1;durP2;ratioP2;P2;SDS_P1;SDS_P2;PMS_P1;PMS_P2;Temp;Humidity;BMP_temperature;BMP_pressure;BME280_temperature;BME280_humidity;BME280_pressure;Samples;Min_cycle;Max_cycle;Signal;HPM_P1;HPM_P2
2023/01/27 00:00:10;;;;;;;30.08;15.23;;;-1.50;99.90;;;-2.72;100.00;97455.47;5020091;28;20025;-49
2023/01/27 00:02:37;;;;;;;30.05;15.07;;;-1.50;99.90;;;-2.70;100.00;97464.13;5025807;28;20036;-47
2023/01/27 00:05:03;;;;;;;36.08;15.18;;;-1.50;99.90;;;-2.77;100.00;97462.28;5021871;28;20071;-46
2023/01/27 00:07:29;;;;;;;28.38;15.10;;;-1.50;99.90;;;-2.80;100.00;97457.94;5021279;28;20033;-46
2023/01/27 00:09:54;;;;;;;25.75;13.80;;;-1.60;99.90;;;-2.81;100.00;97455.34;5030095;28;20056;-46
2023/01/27 00:15:10;;;;;;;25.05;13.60;;;-1.60;99.90;;;-2.73;100.00;97453.72;5017811;28;20083;-47
2023/01/27 00:17:36;;;;;;;27.95;13.98;;;-1.60;99.90;;;-2.73;100.00;97451.16;5018202;28;20029;-48
2023/01/27 00:20:03;;;;;;;23.48;13.15;;;-1.50;99.90;;;-2.72;100.00;97452.91;5020876;28;20382;-50
2023/01/27 00:25:14;;;;;;;25.98;14.07;;;-1.50;99.90;;;-2.76;100.00;97451.13;5016823;28;20106;-48
2023/01/27 00:27:40;;;;;;;28.38;15.25;;;-1.50;99.90;;;-2.80;100.00;97446.72;5018974;28;20275;-48
2023/01/27 00:30:06;;;;;;;30.35;14.50;;;-1.50;99.90;;;-2.79;100.00;97443.31;5019047;28;20041;-46
2023/01/27 00:35:17;;;;;;;23.48;13.00;;;-1.60;99.90;;;-2.73;100.00;97444.28;5020473;28;20110;-47
2023/01/27 00:37:44;;;;;;;28.70;14.00;;;-1.50;99.90;;;-2.74;100.00;97447.72;5005129;28;20080;-46
2023/01/27 00:40:15;;;;;;;27.23;14.05;;;-1.50;99.90;;;-2.72;100.00;97443.44;5027968;28;20115;-46
2023/01/27 00:42:41;;;;;;;24.23;13.67;;;-1.50;99.90;;;-2.66;100.00;97450.41;5022406;28;20029;-50
2023/01/27 00:47:53;;;;;;;28.38;13.57;;;-1.50;99.90;;;-2.71;100.00;97452.03;5029701;28;20558;-45
2023/01/27 00:50:19;;;;;;;31.52;14.15;;;-1.50;99.90;;;-2.75;100.00;97455.44;5033108;28;20043;-48
2023/01/27 00:52:45;;;;;;;30.05;14.20;;;-1.50;99.90;;;-2.78;100.00;97453.69;5036510;28;20072;-46
2023/01/27 00:55:11;;;;;;;25.85;14.00;;;-1.50;99.90;;;-2.74;100.00;97462.34;5033491;28;20113;-50
2023/01/27 00:57:37;;;;;;;22.73;13.23;;;-1.60;99.90;;;-2.72;100.00;97452.91;5034748;28;20040;-46
2023/01/27 01:00:05;;;;;;;31.27;14.77;;;-1.60;99.90;;;-2.72;100.00;97452.91;5028694;28;20715;-50
2023/01/27 01:02:31;;;;;;;29.13;15.38;;;-1.50;99.90;;;-2.75;100.00;97452.84;5032742;28;20222;-48
2023/01/27 01:04:57;;;;;;;29.23;15.98;;;-1.50;99.90;;;-2.90;100.00;97435.41;5032317;28;20037;-48
2023/01/27 01:07:24;;;;;;;29.58;15.15;;;-1.50;99.90;;;-2.91;100.00;97436.22;5034108;28;20056;-49
2023/01/27 01:09:49;;;;;;;27.27;14.95;;;-1.60;99.90;;;-2.76;100.00;97453.72;5021746;28;20511;-49
2023/01/27 01:12:15;;;;;;;33.30;15.75;;;-1.60;99.90;;;-2.74;100.00;97454.59;5033096;28;20120;-49
2023/01/27 01:14:41;;;;;;;27.33;14.30;;;-1.50;99.90;;;-2.71;100.00;97449.47;5025950;28;20043;-46
2023/01/27 01:17:07;;;;;;;28.08;15.45;;;-1.50;99.90;;;-2.72;100.00;97456.34;5018393;28;20098;-47
2023/01/27 01:19:32;;;;;;;26.88;15.27;;;-1.50;99.90;;;-2.69;100.00;97460.72;5023284;28;20484;-46
2023/01/27 01:21:58;;;;;;;30.13;14.70;;;-1.50;99.90;;;-2.67;100.00;97456.44;5020506;28;20049;-46
2023/01/27 01:24:24;;;;;;;27.42;14.82;;;-1.50;99.90;;;-2.61;100.00;97464.25;5019027;28;20190;-48
2023/01/27 01:26:50;;;;;;;29.35;15.40;;;-1.50;99.90;;;-2.45;100.00;97464.50;5019725;28;20695;-49
2023/01/27 01:29:16;;;;;;;26.85;15.15;;;-1.40;99.90;;;-2.48;100.00;97464.47;5034139;28;20036;-48
2023/01/27 01:31:41;;;;;;;24.35;13.75;;;-1.40;99.90;;;-2.51;100.00;97467.88;5036513;28;20029;-47
2023/01/27 01:34:08;;;;;;;28.45;14.23;;;-1.40;99.90;;;-2.52;100.00;97466.13;5030319;28;20029;-45
2023/01/27 01:36:34;;;;;;;26.40;14.13;;;-1.40;99.90;;;-2.70;100.00;97454.66;5029579;28;20033;-47
2023/01/27 01:39:00;;;;;;;26.25;14.02;;;-1.40;99.90;;;-2.57;100.00;97467.75;5028489;28;20496;-45
2023/01/27 01:41:26;;;;;;;27.13;13.98;;;-1.40;99.90;;;-2.63;100.00;97462.50;5019636;28;20028;-47
2023/01/27 01:43:52;;;;;;;26.42;14.20;;;-1.40;99.90;;;-2.65;100.00;97457.31;5022644;28;20124;-46
2023/01/27 01:46:20;;;;;;;26.70;13.68;;;-1.50;99.90;;;-2.59;100.00;97459.13;5028762;28;20017;-46
2023/01/27 01:48:55;;;;;;;28.00;13.65;;;-1.40;99.90;;;-2.56;100.00;97460.03;5023610;28;20683;-47
2023/01/27 01:51:39;;;;;;;23.02;12.27;;;-1.40;99.90;;;-2.59;100.00;97454.81;5013725;28;20067;-46
2023/01/27 01:54:23;;;;;;;23.77;12.40;;;-1.40;99.90;;;-2.57;100.00;97454.84;5008091;28;20036;-46
2023/01/27 01:57:03;;;;;;;28.30;13.57;;;-1.40;99.90;;;-2.62;100.00;97447.06;5025799;28;20063;-46
2023/01/27 01:59:34;;;;;;;24.58;12.38;;;-1.40;99.90;;;-2.62;100.00;97441.00;5028076;28;20037;-49
2023/01/27 02:02:05;;;;;;;26.98;13.18;;;-1.40;99.90;;;-2.61;100.00;97442.75;5017616;28;20033;-49
2023/01/27 02:04:37;;;;;;;20.80;11.93;;;-1.40;99.90;;;-2.62;100.00;97430.66;5024058;28;20332;-49
2023/01/27 02:07:21;;;;;;;28.85;13.40;;;-1.40;99.90;;;-2.67;100.00;97429.72;5010724;28;20036;-47
2023/01/27 02:09:47;;;;;;;27.05;12.30;;;-1.50;99.90;;;-2.76;100.00;97433.06;5023011;28;20033;-49
2023/01/27 02:12:12;;;;;;;21.70;11.18;;;-1.50;99.90;;;-2.72;100.00;97440.84;5011545;28;20041;-47
2023/01/27 02:14:40;;;;;;;24.60;12.00;;;-1.50;99.90;;;-2.67;100.00;97434.88;5023952;28;20033;-46
2023/01/27 02:17:08;;;;;;;19.77;10.63;;;-1.50;99.90;;;-2.64;100.00;97429.78;5028384;28;20474;-50
2023/01/27 02:20:04;;;;;;;18.67;10.27;;;-1.50;99.90;;;-2.62;100.00;97426.41;5039540;28;20130;-48
2023/01/27 02:22:45;;;;;;;19.92;10.68;;;-1.50;99.90;;;-2.59;100.00;97425.56;4999034;28;20060;-49
2023/01/27 02:25:34;;;;;;;24.08;12.52;;;-1.40;99.90;;;-2.60;100.00;97429.88;5004846;28;20162;-46
2023/01/27 02:28:06;;;;;;;20.17;10.52;;;-1.40;99.90;;;-2.79;100.00;97402.03;5009155;28;20059;-46
2023/01/27 02:30:32;;;;;;;17.67;9.77;;;-1.40;99.90;;;-2.67;100.00;97428.03;5025319;28;20280;-49
2023/01/27 02:32:58;;;;;;;23.45;10.98;;;-1.50;99.90;;;-2.67;100.00;97422.88;5022739;28;20086;-47
2023/01/27 02:35:36;;;;;;;21.55;10.90;;;-1.50;99.90;;;-2.70;100.00;97415.06;4987229;28;20039;-46
2023/01/27 02:38:05;;;;;;;21.00;10.45;;;-1.50;99.90;;;-2.67;100.00;97420.28;5000658;28;20051;-48
2023/01/27 02:40:32;;;;;;;17.50;9.93;;;-1.50;99.90;;;-2.63;100.00;97422.06;5013824;28;20059;-47
2023/01/27 02:42:58;;;;;;;21.20;10.30;;;-1.50;99.90;;;-2.59;100.00;97425.56;5024004;28;20029;-48
2023/01/27 02:45:24;;;;;;;17.02;9.80;;;-1.50;99.90;;;-2.56;100.00;97431.63;5026799;28;20033;-50
2023/01/27 02:47:50;;;;;;;16.48;9.43;;;-1.40;99.90;;;-2.52;100.00;97428.25;5029566;28;20041;-47
2023/01/27 02:50:16;;;;;;;17.33;9.93;;;-1.40;99.90;;;-2.50;100.00;97426.56;5032901;28;20040;-47
2023/01/27 02:52:42;;;;;;;18.73;9.57;;;-1.40;99.90;;;-2.60;100.00;97404.03;5028784;28;20041;-48
2023/01/27 02:55:08;;;;;;;18.02;10.13;;;-1.40;99.90;;;-2.48;100.00;97420.56;5028453;28;20044;-46
2023/01/27 02:57:34;;;;;;;20.88;9.88;;;-1.30;99.90;;;-2.55;100.00;97420.47;5029749;28;20118;-46
2023/01/27 03:00:00;;;;;;;20.13;10.27;;;-1.40;99.90;;;-2.56;100.00;97426.47;5027513;28;20044;-46
2023/01/27 03:02:29;;;;;;;18.00;10.27;;;-1.40;99.90;;;-2.57;100.00;97426.44;5027988;28;20049;-46
2023/01/27 03:04:56;;;;;;;22.02;10.52;;;-1.40;99.90;;;-2.61;100.00;97417.78;5030283;28;20098;-48
2023/01/27 03:07:22;;;;;;;21.48;10.80;;;-1.40;99.90;;;-2.63;100.00;97422.06;5029525;28;21124;-47
2023/01/27 03:09:47;;;;;;;23.23;11.30;;;-1.40;99.90;;;-2.65;100.00;97410.00;5032044;28;20613;-46
2023/01/27 03:12:19;;;;;;;18.02;10.50;;;-1.50;99.90;;;-2.70;100.00;97413.34;5027746;28;20036;-46
2023/01/27 03:18:26;;;;;;;17.40;9.57;;;-1.60;99.90;;;-2.75;100.00;97414.13;5017985;28;20248;-47
2023/01/27 03:21:01;;;;;;;19.40;10.63;;;-1.60;99.90;;;-2.74;100.00;97421.03;5021406;28;20021;-46
2023/01/27 03:23:26;;;;;;;19.38;10.05;;;-1.60;99.90;;;-2.76;100.00;97430.47;5020482;28;20040;-46
2023/01/27 03:25:52;;;;;;;21.33;10.80;;;-1.60;99.90;;;-2.82;100.00;97428.63;5019909;28;20036;-47
2023/01/27 03:28:18;;;;;;;17.42;9.98;;;-1.70;99.90;;;-2.80;100.00;97423.50;5026867;28;20032;-46
2023/01/27 03:30:43;;;;;;;21.92;10.93;;;-1.60;99.90;;;-2.78;100.00;97427.88;5030070;28;20128;-46
2023/01/27 03:33:09;;;;;;;20.45;10.25;;;-1.60;99.90;;;-2.72;100.00;97424.50;5021930;28;20041;-45
2023/01/27 03:35:47;;;;;;;19.38;10.65;;;-1.60;99.90;;;-2.63;100.00;97429.81;5008381;28;20539;-46
2023/01/27 03:46:32;;;;;;;22.60;12.10;;;-1.50;99.90;;;-2.78;100.00;97409.78;5021536;28;20624;-48
2023/01/27 03:48:58;;;;;;;22.70;12.10;;;-1.50;99.90;;;-2.67;100.00;97443.53;5030352;28;20388;-47
2023/01/27 03:51:25;;;;;;;19.08;11.13;;;-1.50;99.90;;;-2.65;100.00;97440.97;5026492;28;20044;-47
2023/01/27 03:53:51;;;;;;;22.52;12.88;;;-1.50;99.90;;;-2.67;100.00;97432.31;5020997;28;20419;-47
2023/01/27 03:56:20;;;;;;;23.92;12.77;;;-1.50;99.90;;;-2.66;100.00;97432.34;5023539;28;20035;-48
2023/01/27 03:58:48;;;;;;;22.02;12.18;;;-1.50;99.90;;;-2.66;100.00;97436.63;5028198;28;20198;-49
2023/01/27 04:01:22;;;;;;;26.00;13.10;;;-1.50;99.90;;;-2.67;100.00;97445.22;5027850;28;20097;-46
2023/01/27 04:06:53;;;;;;;22.20;13.55;;;-1.50;99.90;;;-2.70;100.00;97440.88;5008001;28;20059;-45
2023/01/27 04:09:31;;;;;;;23.80;12.60;;;-1.50;99.90;;;-2.67;100.00;97437.47;5024634;28;20033;-47
2023/01/27 04:12:03;;;;;;;22.17;11.90;;;-1.50;99.90;;;-2.65;100.00;97428.91;5026114;28;20474;-47
2023/01/27 04:14:34;;;;;;;24.77;13.82;;;-1.50;99.90;;;-2.66;100.00;97429.75;5024342;28;20131;-46
2023/01/27 04:17:16;;;;;;;21.53;12.80;;;-1.50;99.90;;;-2.67;100.00;97438.34;5021779;28;21415;-45
2023/01/27 04:19:41;;;;;;;19.98;12.23;;;-1.50;99.90;;;-2.64;100.00;97435.81;5023445;28;20119;-47
2023/01/27 04:22:10;;;;;;;22.08;13.05;;;-1.50;99.90;;;-2.66;100.00;97444.38;5030965;28;20383;-47
2023/01/27 04:24:36;;;;;;;24.75;14.00;;;-1.50;99.90;;;-2.66;100.00;97444.38;5019715;28;20480;-46
2023/01/27 04:27:08;;;;;;;24.73;13.50;;;-1.50;99.90;;;-2.63;100.00;97449.59;5030247;28;20033;-45
2023/01/27 04:29:39;;;;;;;22.90;13.82;;;-1.50;99.90;;;-2.49;100.00;97453.25;5021135;28;20041;-45
2023/01/27 04:32:08;;;;;;;23.48;13.32;;;-1.40;99.90;;;-2.53;100.00;97447.19;5025454;28;20511;-46
2023/01/27 04:34:34;;;;;;;25.42;14.07;;;-1.40;99.90;;;-2.53;100.00;97459.22;5021994;28;20070;-47
2023/01/27 04:37:02;;;;;;;24.23;13.38;;;-1.40;99.90;;;-2.55;100.00;97456.63;5022293;28;20029;-46
2023/01/27 04:39:28;;;;;;;25.02;14.50;;;-1.40;99.90;;;-2.59;100.00;97456.53;5022179;28;20026;-46
2023/01/27 04:41:55;;;;;;;25.63;14.85;;;-1.40;99.90;;;-2.65;100.00;97444.41;5023241;28;20085;-50
2023/01/27 04:44:21;;;;;;;24.55;13.98;;;-1.40;99.90;;;-2.61;100.00;97437.59;5017571;28;20037;-46
2023/01/27 04:46:49;;;;;;;25.38;15.25;;;-1.40;99.90;;;-2.61;100.00;97448.78;5023099;28;21478;-45
2023/01/27 04:49:15;;;;;;;26.42;14.98;;;-1.40;99.90;;;-2.64;100.00;97453.00;5025178;28;20025;-51
2023/01/27 04:51:41;;;;;;;28.75;15.77;;;-1.40;99.90;;;-2.72;100.00;97434.84;5018345;28;20059;-48
2023/01/27 04:54:07;;;;;;;26.80;14.73;;;-1.50;99.90;;;-2.67;100.00;97456.44;5026945;28;20033;-47
2023/01/27 04:56:40;;;;;;;25.92;14.65;;;-1.50;99.90;;;-2.63;100.00;97452.19;5029101;28;20420;-47
2023/01/27 04:59:09;;;;;;;24.13;15.35;;;-1.50;99.90;;;-2.65;100.00;97446.13;5030270;28;20029;-46
2023/01/27 05:01:35;;;;;;;29.02;16.40;;;-1.50;99.90;;;-2.71;100.00;97444.28;5009880;28;20064;-45
2023/01/27 05:04:01;;;;;;;30.17;16.63;;;-1.50;99.90;;;-2.74;100.00;97442.53;5023833;28;20423;-46
2023/01/27 05:06:27;;;;;;;32.70;17.35;;;-1.50;99.90;;;-2.74;100.00;97444.28;5023423;28;20056;-47
2023/01/27 05:08:53;;;;;;;34.38;16.35;;;-1.50;99.90;;;-2.69;100.00;97452.97;5020419;28;20728;-45
2023/01/27 05:11:19;;;;;;;29.15;16.60;;;-1.50;99.90;;;-2.66;100.00;97460.72;5024120;28;20062;-46
2023/01/27 05:13:45;;;;;;;28.75;15.95;;;-1.50;99.90;;;-2.66;100.00;97452.97;5026814;28;20028;-46
2023/01/27 05:16:18;;;;;;;28.45;16.52;;;-1.50;99.90;;;-2.66;100.00;97465.03;5009565;28;20441;-48
2023/01/27 05:18:47;;;;;;;28.05;16.13;;;-1.50;99.90;;;-2.64;100.00;97453.88;5023888;28;20037;-46
2023/01/27 05:21:17;;;;;;;28.63;16.10;;;-1.50;99.90;;;-2.60;100.00;97445.34;5031579;28;20113;-46
2023/01/27 05:23:43;;;;;;;30.45;16.05;;;-1.40;99.90;;;-2.63;100.00;97444.44;5015505;28;20055;-51
2023/01/27 05:26:19;;;;;;;31.02;16.42;;;-1.40;99.90;;;-2.67;100.00;97447.78;5018370;28;20556;-47
2023/01/27 05:28:47;;;;;;;29.75;15.50;;;-1.50;99.90;;;-2.65;100.00;97454.75;5024609;28;20033;-49
2023/01/27 05:31:19;;;;;;;30.45;16.33;;;-1.50;99.90;;;-2.59;100.00;97464.28;5031188;28;20108;-47
2023/01/27 05:33:48;;;;;;;25.50;15.30;;;-1.40;99.90;;;-2.57;100.00;97475.50;5026925;28;20037;-47
2023/01/27 05:36:16;;;;;;;31.60;15.13;;;-1.40;99.90;;;-2.55;100.00;97473.81;5028095;28;20028;-48
2023/01/27 05:38:42;;;;;;;26.98;15.68;;;-1.40;99.90;;;-2.56;100.00;97462.63;5021692;28;20095;-46
2023/01/27 05:41:10;;;;;;;29.05;15.35;;;-1.40;99.90;;;-2.55;100.00;97463.47;5004737;28;20021;-46
2023/01/27 05:43:40;;;;;;;27.95;15.55;;;-1.40;99.90;;;-2.59;100.00;97475.47;5029172;28;20044;-47
2023/01/27 05:46:14;;;;;;;28.50;15.68;;;-1.40;99.90;;;-2.51;100.00;97489.41;5032795;28;20040;-47
2023/01/27 05:48:43;;;;;;;27.13;15.32;;;-1.40;99.90;;;-2.44;100.00;97486.91;5027678;28;20033;-45
2023/01/27 05:51:10;;;;;;;29.55;16.27;;;-1.30;99.90;;;-2.46;100.00;97494.63;5026313;28;20040;-49
2023/01/27 05:53:35;;;;;;;27.83;15.40;;;-1.30;99.90;;;-2.44;100.00;97492.06;5033616;28;20141;-46
2023/01/27 05:56:03;;;;;;;27.02;16.58;;;-1.30;99.90;;;-2.45;100.00;97470.53;5032602;28;20579;-47
2023/01/27 05:58:30;;;;;;;27.65;15.48;;;-1.30;99.90;;;-2.46;100.00;97486.00;5025705;28;20502;-48
2023/01/27 06:00:56;;;;;;;29.30;16.15;;;-1.30;99.90;;;-2.44;100.00;97487.78;5029753;28;20041;-48
2023/01/27 06:03:22;;;;;;;27.05;14.82;;;-1.30;99.90;;;-2.46;100.00;97468.78;5034112;28;20036;-49
2023/01/27 06:05:56;;;;;;;28.95;16.25;;;-1.30;99.90;;;-2.44;100.00;97463.66;5033430;28;20068;-46
2023/01/27 06:08:24;;;;;;;26.25;15.60;;;-1.20;99.90;;;-2.36;100.00;97480.16;5031466;28;20058;-46
2023/01/27 06:10:51;;;;;;;28.15;16.30;;;-1.20;99.90;;;-2.37;100.00;97484.47;5033100;28;20039;-53
2023/01/27 06:13:18;;;;;;;27.85;16.17;;;-1.20;99.90;;;-2.37;100.00;97481.88;5033179;28;20064;-49
2023/01/27 06:15:45;;;;;;;28.40;16.23;;;-1.20;99.90;;;-2.34;100.00;97478.44;5030800;28;20699;-48
2023/01/27 06:18:12;;;;;;;26.95;15.35;;;-1.20;99.90;;;-2.36;100.00;97473.25;5029222;28;20029;-47
2023/01/27 06:20:38;;;;;;;27.77;15.77;;;-1.20;99.90;;;-2.35;100.00;97479.28;5033261;28;20436;-47
2023/01/27 06:23:05;;;;;;;27.90;15.68;;;-1.20;99.90;;;-2.37;100.00;97480.97;5024199;28;20320;-48
2023/01/27 06:25:42;;;;;;;26.48;15.55;;;-1.20;99.90;;;-2.38;100.00;97487.00;5029754;28;20035;-50
2023/01/27 06:28:08;;;;;;;28.00;14.32;;;-1.20;99.90;;;-2.33;100.00;97485.38;5029900;28;20037;-50
2023/01/27 06:30:35;;;;;;;29.80;15.63;;;-1.20;99.90;;;-2.34;100.00;97478.44;5024393;28;20049;-49
2023/01/27 06:33:02;;;;;;;29.50;15.82;;;-1.20;99.90;;;-2.32;100.00;97479.34;5028997;28;20053;-50
2023/01/27 06:35:28;;;;;;;25.38;14.85;;;-1.20;99.90;;;-2.27;100.00;97485.44;5031214;28;20029;-50
2023/01/27 06:37:56;;;;;;;27.25;15.38;;;-1.10;99.90;;;-2.31;100.00;97484.53;5014668;28;20040;-48
2023/01/27 06:40:21;;;;;;;27.58;14.73;;;-1.10;99.90;;;-2.23;100.00;97482.06;5024736;28;20103;-50
2023/01/27 06:42:47;;;;;;;29.42;15.05;;;-1.10;99.90;;;-2.25;100.00;97490.66;5021658;28;20045;-50
2023/01/27 06:45:13;;;;;;;27.58;15.38;;;-1.10;99.90;;;-2.24;100.00;97489.78;5026906;28;20035;-50
2023/01/27 06:47:39;;;;;;;23.45;13.70;;;-1.10;99.90;;;-2.20;100.00;97492.44;5027064;28;20130;-49
2023/01/27 06:50:07;;;;;;;24.20;14.43;;;-1.10;99.90;;;-2.18;100.00;97500.22;5029939;28;20032;-51
2023/01/27 06:52:33;;;;;;;24.55;14.13;;;-1.00;99.90;;;-2.15;100.00;97508.03;5032052;28;20086;-48
2023/01/27 06:54:59;;;;;;;26.58;14.70;;;-1.10;99.90;;;-2.17;100.00;97508.00;5027891;28;20033;-50
2023/01/27 06:57:24;;;;;;;24.95;14.65;;;-1.00;99.90;;;-2.15;100.00;97519.22;5029427;28;20143;-49
2023/01/27 06:59:50;;;;;;;25.75;13.75;;;-1.00;99.90;;;-2.11;100.00;97521.00;5026670;28;20041;-48
2023/01/27 07:02:16;;;;;;;26.55;15.93;;;-1.00;99.90;;;-2.12;100.00;97514.09;5033802;28;20041;-49
2023/01/27 07:04:42;;;;;;;26.70;14.82;;;-1.00;99.90;;;-2.29;100.00;97491.44;5036772;28;20102;-46
2023/01/27 07:07:07;;;;;;;25.63;14.07;;;-1.00;99.90;;;-2.07;100.00;97534.84;5036896;28;20040;-48
2023/01/27 07:09:33;;;;;;;24.30;12.98;;;-0.90;99.90;;;-2.08;100.00;97543.44;5027627;28;20040;-47
2023/01/27 07:11:59;;;;;;;23.95;13.85;;;-1.00;99.90;;;-2.10;100.00;97539.94;5028686;28;20105;-49
2023/01/27 07:14:24;;;;;;;23.65;13.13;;;-1.00;99.90;;;-2.08;100.00;97551.22;5011805;28;20032;-47
2023/01/27 07:16:50;;;;;;;23.05;12.82;;;-1.00;99.90;;;-2.09;100.00;97556.34;5026538;28;20238;-48
2023/01/27 07:19:16;;;;;;;22.30;13.05;;;-1.00;99.90;;;-2.11;100.00;97551.16;5033080;28;20451;-48
2023/01/27 07:21:42;;;;;;;25.13;13.52;;;-1.00;99.90;;;-2.12;100.00;97551.97;5010436;28;20029;-50
2023/01/27 07:24:08;;;;;;;22.98;12.90;;;-1.00;99.90;;;-2.15;100.00;97550.22;5023051;28;20041;-47
2023/01/27 07:26:34;;;;;;;23.17;13.30;;;-1.00;99.90;;;-2.20;100.00;97546.69;5026367;28;20413;-50
2023/01/27 07:29:00;;;;;;;24.52;14.38;;;-1.00;99.90;;;-2.16;100.00;97561.41;5027350;28;20614;-51
2023/01/27 07:31:25;;;;;;;23.58;13.07;;;-1.00;99.90;;;-2.17;100.00;97563.94;5028527;28;21170;-47
2023/01/27 07:33:52;;;;;;;23.83;12.63;;;-1.00;99.90;;;-2.17;100.00;97559.69;5025511;28;20033;-50
2023/01/27 07:36:18;;;;;;;21.95;13.00;;;-1.00;99.90;;;-2.14;100.00;97557.13;5029218;28;20036;-49
2023/01/27 07:38:44;;;;;;;21.23;12.48;;;-1.00;99.90;;;-2.10;100.00;97563.22;5023700;28;20037;-47
2023/01/27 07:41:10;;;;;;;19.60;12.18;;;-1.00;99.90;;;-2.26;100.00;97543.13;5022677;28;20161;-47
2023/01/27 07:43:36;;;;;;;19.63;12.13;;;-1.00;99.90;;;-2.08;100.00;97566.72;5023903;28;20450;-45
2023/01/27 07:46:01;;;;;;;23.08;12.98;;;-0.90;99.90;;;-2.05;100.00;97565.88;5026160;28;20034;-50
2023/01/27 07:48:27;;;;;;;22.42;12.75;;;-0.90;99.90;;;-2.08;100.00;97564.13;5028560;28;20425;-46
2023/01/27 07:50:53;;;;;;;23.55;12.18;;;-0.90;99.90;;;-2.09;100.00;97569.25;5028582;28;20048;-46
2023/01/27 07:53:18;;;;;;;21.27;11.75;;;-0.90;99.90;;;-2.07;100.00;97575.31;5029532;28;20144;-50
2023/01/27 07:55:44;;;;;;;20.98;12.13;;;-0.90;99.90;;;-2.03;100.00;97570.22;5017780;28;20029;-47
2023/01/27 07:58:10;;;;;;;19.45;11.23;;;-0.90;99.90;;;-2.00;100.00;97583.19;5027661;28;20025;-47
2023/01/27 08:00:35;;;;;;;20.10;11.57;;;-0.90;99.90;;;-2.02;100.00;97594.38;5026664;28;20037;-46
2023/01/27 08:03:02;;;;;;;22.45;11.43;;;-0.90;99.90;;;-2.20;100.00;97563.94;5030132;28;20428;-50
2023/01/27 08:05:31;;;;;;;20.10;10.90;;;-0.90;99.90;;;-2.06;100.00;97587.38;5025634;28;20339;-47
2023/01/27 08:07:57;;;;;;;19.55;11.50;;;-0.90;99.90;;;-2.13;100.00;97581.28;5032542;28;20037;-48
2023/01/27 08:10:23;;;;;;;20.20;11.13;;;-0.90;99.90;;;-2.08;100.00;97591.66;5025613;28;20068;-50
2023/01/27 08:12:49;;;;;;;21.45;10.95;;;-0.90;99.90;;;-2.02;100.00;97586.59;5026766;28;20029;-48
2023/01/27 08:15:14;;;;;;;22.35;11.70;;;-0.90;99.90;;;-1.99;100.00;97581.47;5027736;28;20400;-46
2023/01/27 08:17:40;;;;;;;18.95;11.35;;;-0.90;99.90;;;-2.01;100.00;97588.31;5033464;28;20052;-48
2023/01/27 08:20:08;;;;;;;19.23;10.30;;;-0.90;99.90;;;-2.08;100.00;97594.25;5038570;28;20060;-50
2023/01/27 08:22:33;;;;;;;17.30;10.30;;;-0.90;99.90;;;-2.04;100.00;97589.16;5035535;28;20102;-49
2023/01/27 08:24:59;;;;;;;18.55;10.18;;;-0.90;99.90;;;-2.03;100.00;97592.59;5033583;28;20032;-50
2023/01/27 08:27:25;;;;;;;19.40;10.88;;;-0.90;99.90;;;-2.02;100.00;97592.63;5035303;28;20064;-48
2023/01/27 08:29:50;;;;;;;21.15;11.18;;;-0.90;99.90;;;-2.01;100.00;97606.41;5033545;28;20037;-50
2023/01/27 08:32:16;;;;;;;18.58;10.80;;;-0.80;99.90;;;-2.03;100.00;97608.13;5029681;28;20480;-49
2023/01/27 08:34:42;;;;;;;19.77;10.57;;;-0.90;99.90;;;-1.86;100.00;97601.50;5032402;28;20033;-46
2023/01/27 08:37:08;;;;;;;21.17;11.45;;;-0.80;99.90;;;-1.92;100.00;97614.31;5032149;28;20389;-50
2023/01/27 08:39:34;;;;;;;20.35;11.27;;;-0.80;99.90;;;-1.89;100.00;97611.78;5030283;28;20103;-49
2023/01/27 08:41:59;;;;;;;18.08;10.77;;;-0.80;99.90;;;-1.90;100.00;97606.59;5033688;28;20029;-48
2023/01/27 08:44:27;;;;;;;20.05;10.70;;;-0.80;99.90;;;-1.86;100.00;97619.59;5033492;28;20091;-49
2023/01/27 08:46:53;;;;;;;20.15;10.80;;;-0.70;99.90;;;-1.78;100.00;97610.22;5029375;28;20053;-49
2023/01/27 08:49:19;;;;;;;18.38;10.73;;;-0.70;99.90;;;-1.83;100.00;97605.84;5033204;28;20017;-46
2023/01/27 08:51:45;;;;;;;19.13;11.20;;;-0.70;99.90;;;-1.84;100.00;97612.72;5030072;28;21069;-48
2023/01/27 08:54:11;;;;;;;20.42;10.52;;;-0.60;99.90;;;-1.92;100.00;97598.81;5030507;28;20423;-50
2023/01/27 08:56:37;;;;;;;20.20;10.07;;;-0.70;99.90;;;-1.89;100.00;97598.88;5029901;28;20035;-48
2023/01/27 08:59:02;;;;;;;19.75;10.65;;;-0.70;99.90;;;-1.83;100.00;97617.06;5038572;28;20090;-50
2023/01/27 09:01:28;;;;;;;20.88;10.40;;;-0.60;99.90;;;-1.75;100.00;97624.94;5031693;28;20166;-50
2023/01/27 09:03:54;;;;;;;18.45;10.30;;;-0.70;99.90;;;-1.81;100.00;97627.41;5036426;28;20033;-48
2023/01/27 09:06:20;;;;;;;18.15;10.18;;;-0.70;99.90;;;-1.80;100.00;97630.03;5036623;28;20078;-51
2023/01/27 09:09:07;;;;;;;18.33;9.90;;;-0.70;99.90;;;-1.76;100.00;97629.25;5028831;28;20063;-49
2023/01/27 09:11:32;;;;;;;19.45;9.55;;;-0.70;99.90;;;-1.92;100.00;97606.56;5039592;28;20393;-46
2023/01/27 09:13:58;;;;;;;15.32;9.43;;;-0.70;99.90;;;-1.86;100.00;97624.78;5037515;28;20096;-48
2023/01/27 09:16:23;;;;;;;17.85;9.68;;;-0.70;99.90;;;-1.83;100.00;97621.34;5036489;28;20020;-48
2023/01/27 09:18:49;;;;;;;17.52;9.93;;;-0.70;99.90;;;-1.78;100.00;97617.13;5017249;28;20025;-50
2023/01/27 09:21:15;;;;;;;18.00;10.10;;;-0.70;99.90;;;-1.81;100.00;97625.72;5040694;28;20025;-49
2023/01/27 09:23:41;;;;;;;20.20;10.27;;;-0.70;99.90;;;-1.82;100.00;97615.34;5032556;28;20128;-50
2023/01/27 09:26:06;;;;;;;18.60;10.35;;;-0.70;99.90;;;-1.86;100.00;97619.59;5035170;28;20037;-50
2023/01/27 09:28:32;;;;;;;19.98;10.57;;;-0.70;99.90;;;-1.84;100.00;97620.50;5034262;28;20033;-51
2023/01/27 09:30:58;;;;;;;21.27;11.13;;;-0.70;99.90;;;-1.83;100.00;97622.25;5037001;28;20040;-50
2023/01/27 09:33:25;;;;;;;19.90;10.65;;;-0.70;99.90;;;-1.78;100.00;97617.13;5035717;28;20037;-48
2023/01/27 09:35:58;;;;;;;19.00;10.35;;;-0.60;99.90;;;-1.81;100.00;97614.47;5035898;28;20071;-50
2023/01/27 09:38:27;;;;;;;20.42;11.60;;;-0.60;99.90;;;-1.73;100.00;97616.34;5018980;28;20043;-50
2023/01/27 09:41:25;;;;;;;20.30;10.65;;;-0.60;99.90;;;-1.64;100.00;97625.97;5032297;28;20024;-47
2023/01/27 09:44:25;;;;;;;20.48;10.23;;;-0.50;99.90;;;-1.76;100.00;97607.66;5033752;28;20109;-51
2023/01/27 09:47:43;;;;;;;19.90;10.02;;;-0.50;99.90;;;-1.53;100.00;97633.88;5015768;28;20041;-48
2023/01/27 09:50:34;;;;;;;20.80;10.15;;;-0.40;99.90;;;-1.58;100.00;97622.59;5015978;28;20025;-46
2023/01/27 09:53:17;;;;;;;21.13;11.70;;;-0.40;99.90;;;-1.51;100.00;97624.41;5033981;28;20114;-48
2023/01/27 09:55:49;;;;;;;;;;;-0.40;99.90;;;-1.42;100.00;97621.09;5016296;28;20051;-48
2023/01/27 09:58:35;;;;;;;25.95;11.55;;;-0.30;99.90;;;-1.56;100.00;97606.25;5019413;28;20016;-48
2023/01/27 10:01:48;;;;;;;23.98;11.43;;;-0.30;99.90;;;-1.48;100.00;97629.63;5028668;28;20091;-50
2023/01/27 10:04:42;;;;;;;24.40;11.48;;;-0.40;99.90;;;-1.47;100.00;97633.09;5018701;28;20055;-49
2023/01/27 10:07:49;;;;;;;24.40;11.57;;;-0.40;99.90;;;-1.56;100.00;97633.84;5020617;28;20232;-50
2023/01/27 10:10:34;;;;;;;23.65;11.52;;;-0.40;99.90;;;-1.52;100.00;97616.66;5018616;28;20021;-50
2023/01/27 10:13:33;;;;;;;22.45;11.63;;;-0.40;99.90;;;-1.39;100.00;97626.31;5001385;28;20101;-50
2023/01/27 10:16:34;;;;;;;25.92;11.65;;;-0.30;99.90;;;-1.23;100.00;97629.97;5013619;28;20550;-50
2023/01/27 10:19:54;;;;;;;21.50;11.30;;;-0.20;99.90;;;-1.27;100.00;97628.22;5035958;28;20029;-50
2023/01/27 10:22:36;;;;;;;20.92;10.32;;;-0.10;99.90;;;-1.21;100.00;97628.28;5031456;28;20032;-50
2023/01/27 10:25:27;;;;;;;18.75;9.93;;;-0.10;99.90;;;-1.09;100.00;97622.41;5033705;28;20102;-50
2023/01/27 10:27:57;;;;;;;25.60;11.20;;;0.00;99.90;;;-0.97;100.00;97625.13;5031243;28;20038;-50
2023/01/27 10:30:35;;;;;;;17.20;9.27;;;0.10;99.90;;;-0.81;100.00;97627.06;5031071;28;20037;-50
2023/01/27 10:33:20;;;;;;;21.15;10.57;;;0.20;99.90;;;-0.83;100.00;97627.88;5030188;28;20033;-47
2023/01/27 10:35:58;;;;;;;22.10;11.18;;;0.30;99.90;;;-0.73;100.00;97637.50;5015599;28;20354;-50